sensor_id;sensor_type;location;lat;lon;timestamp;P1;durP1;ratioP1;P2;durP2;ratioP2
7707;SDS011;3896;48.758;8.888;2022-08-19T00:00:12;18.43;;;13.67;;
7707;SDS011;3896;48.758;8.888;2022-08-19T00:02:39;15.37;;;13.77;;
7707;SDS011;3896;48.758;8.888;2022-08-19T00:05:05;18.47;;;14.37;;
7707;SDS011;3896;48.758;8.888;2022-08-19T00:07:32;18.07;;;13.67;;
7707;SDS011;3896;48.758;8.888;2022-08-19T00:09:57;16.97;;;14.13;;
7707;SDS011;3896;48.758;8.888;2022-08-19T00:12:23;17.60;;;14.30;;
7707;SDS011;3896;48.758;8.888;2022-08-19T00:14:49;17.23;;;13.87;;
7707;SDS011;3896;48.758;8.888;2022-08-19T00:17:14;18.57;;;14.60;;
7707;SDS011;3896;48.758;8.888;2022-08-19T00:19:40;19.83;;;15.20;;
7707;SDS011;3896;48.758;8.888;2022-08-19T00:22:06;18.37;;;15.40;;
7707;SDS011;3896;48.758;8.888;2022-08-19T00:24:33;17.57;;;14.37;;
7707;SDS011;3896;48.758;8.888;2022-08-19T00:27:00;16.63;;;13.80;;
7707;SDS011;3896;48.758;8.888;2022-08-19T00:29:27;16.23;;;14.47;;
7707;SDS011;3896;48.758;8.888;2022-08-19T00:31:53;17.67;;;14.20;;
7707;SDS011;3896;48.758;8.888;2022-08-19T00:34:20;18.50;;;15.27;;
7707;SDS011;3896;48.758;8.888;2022-08-19T00:36:46;20.07;;;16.03;;
7707;SDS011;3896;48.758;8.888;2022-08-19T00:39:13;18.80;;;15.60;;
7707;SDS011;3896;48.758;8.888;2022-08-19T00:41:40;19.87;;;16.43;;
7707;SDS011;3896;48.758;8.888;2022-08-19T00:44:12;18.83;;;15.07;;
7707;SDS011;3896;48.758;8.888;2022-08-19T00:46:41;17.67;;;15.63;;
7707;SDS011;3896;48.758;8.888;2022-08-19T00:49:10;19.53;;;14.83;;
7707;SDS011;3896;48.758;8.888;2022-08-19T00:51:41;18.00;;;15.20;;
7707;SDS011;3896;48.758;8.888;2022-08-19T00:54:09;19.47;;;15.37;;
7707;SDS011;3896;48.758;8.888;2022-08-19T00:56:35;18.83;;;16.00;;
7707;SDS011;3896;48.758;8.888;2022-08-19T00:59:02;17.40;;;15.50;;
7707;SDS011;3896;48.758;8.888;2022-08-19T01:01:34;17.40;;;14.63;;
7707;SDS011;3896;48.758;8.888;2022-08-19T01:04:04;21.30;;;16.30;;
7707;SDS011;3896;48.758;8.888;2022-08-19T01:06:30;20.33;;;16.73;;
7707;SDS011;3896;48.758;8.888;2022-08-19T01:08:57;20.03;;;16.27;;
7707;SDS011;3896;48.758;8.888;2022-08-19T01:11:23;19.93;;;16.60;;
7707;SDS011;3896;48.758;8.888;2022-08-19T01:13:50;19.13;;;15.90;;
7707;SDS011;3896;48.758;8.888;2022-08-19T01:16:18;18.37;;;16.43;;
7707;SDS011;3896;48.758;8.888;2022-08-19T01:18:45;19.20;;;16.30;;
7707;SDS011;3896;48.758;8.888;2022-08-19T01:24:07;19.03;;;16.63;;
7707;SDS011;3896;48.758;8.888;2022-08-19T01:26:37;19.93;;;17.23;;
7707;SDS011;3896;48.758;8.888;2022-08-19T01:29:10;18.70;;;16.30;;
7707;SDS011;3896;48.758;8.888;2022-08-19T01:31:35;19.97;;;16.80;;
7707;SDS011;3896;48.758;8.888;2022-08-19T01:34:02;20.07;;;16.93;;
7707;SDS011;3896;48.758;8.888;2022-08-19T01:36:34;19.07;;;16.30;;
7707;SDS011;3896;48.758;8.888;2022-08-19T01:39:01;18.87;;;16.70;;
7707;SDS011;3896;48.758;8.888;2022-08-19T01:41:28;18.93;;;16.57;;
7707;SDS011;3896;48.758;8.888;2022-08-19T01:43:54;20.33;;;16.83;;
7707;SDS011;3896;48.758;8.888;2022-08-19T01:46:21;16.77;;;14.93;;
7707;SDS011;3896;48.758;8.888;2022-08-19T01:48:47;22.70;;;17.40;;
7707;SDS011;3896;48.758;8.888;2022-08-19T01:51:13;20.37;;;16.43;;
7707;SDS011;3896;48.758;8.888;2022-08-19T01:53:40;18.87;;;16.60;;
7707;SDS011;3896;48.758;8.888;2022-08-19T01:56:08;18.43;;;16.27;;
7707;SDS011;3896;48.758;8.888;2022-08-19T01:58:35;22.00;;;16.63;;
7707;SDS011;3896;48.758;8.888;2022-08-19T02:01:05;25.23;;;17.67;;
7707;SDS011;3896;48.758;8.888;2022-08-19T02:03:31;19.97;;;17.23;;
7707;SDS011;3896;48.758;8.888;2022-08-19T02:06:00;21.43;;;16.87;;
7707;SDS011;3896;48.758;8.888;2022-08-19T02:08:27;22.67;;;17.27;;
7707;SDS011;3896;48.758;8.888;2022-08-19T02:10:57;19.30;;;17.13;;
7707;SDS011;3896;48.758;8.888;2022-08-19T02:13:24;23.13;;;16.63;;
7707;SDS011;3896;48.758;8.888;2022-08-19T02:15:50;20.57;;;17.17;;
7707;SDS011;3896;48.758;8.888;2022-08-19T02:18:16;19.03;;;16.67;;
7707;SDS011;3896;48.758;8.888;2022-08-19T02:20:42;19.53;;;17.23;;
7707;SDS011;3896;48.758;8.888;2022-08-19T02:23:09;21.43;;;17.37;;
7707;SDS011;3896;48.758;8.888;2022-08-19T02:25:36;22.23;;;18.70;;
7707;SDS011;3896;48.758;8.888;2022-08-19T02:28:03;22.10;;;18.37;;
7707;SDS011;3896;48.758;8.888;2022-08-19T02:30:29;22.57;;;17.27;;
7707;SDS011;3896;48.758;8.888;2022-08-19T02:32:54;20.67;;;17.77;;
7707;SDS011;3896;48.758;8.888;2022-08-19T02:35:20;21.63;;;18.70;;
7707;SDS011;3896;48.758;8.888;2022-08-19T02:37:46;22.03;;;16.53;;
7707;SDS011;3896;48.758;8.888;2022-08-19T02:40:31;20.50;;;17.07;;
7707;SDS011;3896;48.758;8.888;2022-08-19T02:42:59;22.73;;;17.37;;
7707;SDS011;3896;48.758;8.888;2022-08-19T02:45:26;23.53;;;18.23;;
7707;SDS011;3896;48.758;8.888;2022-08-19T02:47:51;20.20;;;18.10;;
7707;SDS011;3896;48.758;8.888;2022-08-19T02:50:18;20.67;;;17.93;;
7707;SDS011;3896;48.758;8.888;2022-08-19T02:52:44;22.73;;;18.83;;
7707;SDS011;3896;48.758;8.888;2022-08-19T02:55:10;21.10;;;18.13;;
7707;SDS011;3896;48.758;8.888;2022-08-19T02:57:36;20.77;;;18.57;;
7707;SDS011;3896;48.758;8.888;2022-08-19T03:00:03;28.10;;;19.87;;
7707;SDS011;3896;48.758;8.888;2022-08-19T03:02:30;21.27;;;18.43;;
7707;SDS011;3896;48.758;8.888;2022-08-19T03:04:56;22.23;;;18.53;;
7707;SDS011;3896;48.758;8.888;2022-08-19T03:07:22;23.07;;;18.30;;
7707;SDS011;3896;48.758;8.888;2022-08-19T03:09:47;22.63;;;19.57;;
7707;SDS011;3896;48.758;8.888;2022-08-19T03:12:13;23.27;;;19.83;;
7707;SDS011;3896;48.758;8.888;2022-08-19T03:14:38;20.70;;;18.50;;
7707;SDS011;3896;48.758;8.888;2022-08-19T03:17:04;25.23;;;19.10;;
7707;SDS011;3896;48.758;8.888;2022-08-19T03:19:30;21.77;;;18.67;;
7707;SDS011;3896;48.758;8.888;2022-08-19T03:21:56;21.70;;;19.40;;
7707;SDS011;3896;48.758;8.888;2022-08-19T03:24:22;22.27;;;19.47;;
7707;SDS011;3896;48.758;8.888;2022-08-19T03:26:51;20.13;;;18.03;;
7707;SDS011;3896;48.758;8.888;2022-08-19T03:29:20;24.20;;;19.63;;
7707;SDS011;3896;48.758;8.888;2022-08-19T03:31:45;24.73;;;20.13;;
7707;SDS011;3896;48.758;8.888;2022-08-19T03:34:12;22.50;;;19.50;;
7707;SDS011;3896;48.758;8.888;2022-08-19T03:36:40;27.13;;;21.00;;
7707;SDS011;3896;48.758;8.888;2022-08-19T03:39:06;25.20;;;20.23;;
7707;SDS011;3896;48.758;8.888;2022-08-19T03:41:38;23.50;;;20.70;;
7707;SDS011;3896;48.758;8.888;2022-08-19T03:44:06;23.60;;;20.50;;
7707;SDS011;3896;48.758;8.888;2022-08-19T03:46:33;21.67;;;19.33;;
7707;SDS011;3896;48.758;8.888;2022-08-19T03:49:02;30.60;;;20.83;;
7707;SDS011;3896;48.758;8.888;2022-08-19T03:51:33;21.90;;;19.47;;
7707;SDS011;3896;48.758;8.888;2022-08-19T03:54:03;23.53;;;20.40;;
7707;SDS011;3896;48.758;8.888;2022-08-19T03:56:32;24.87;;;20.37;;
7707;SDS011;3896;48.758;8.888;2022-08-19T03:58:59;26.60;;;22.03;;
7707;SDS011;3896;48.758;8.888;2022-08-19T04:01:25;25.07;;;21.60;;
7707;SDS011;3896;48.758;8.888;2022-08-19T04:03:53;25.63;;;21.37;;
7707;SDS011;3896;48.758;8.888;2022-08-19T04:06:25;23.83;;;20.47;;
7707;SDS011;3896;48.758;8.888;2022-08-19T04:08:53;25.10;;;21.07;;
7707;SDS011;3896;48.758;8.888;2022-08-19T04:11:21;25.57;;;21.23;;
7707;SDS011;3896;48.758;8.888;2022-08-19T04:13:49;26.77;;;20.37;;
7707;SDS011;3896;48.758;8.888;2022-08-19T04:16:16;24.43;;;20.93;;
7707;SDS011;3896;48.758;8.888;2022-08-19T04:18:44;23.30;;;20.70;;
7707;SDS011;3896;48.758;8.888;2022-08-19T04:21:15;24.20;;;20.40;;
7707;SDS011;3896;48.758;8.888;2022-08-19T04:23:42;29.93;;;21.90;;
7707;SDS011;3896;48.758;8.888;2022-08-19T04:26:12;25.07;;;21.63;;
7707;SDS011;3896;48.758;8.888;2022-08-19T04:28:39;24.80;;;20.57;;
7707;SDS011;3896;48.758;8.888;2022-08-19T04:31:04;22.37;;;19.20;;
7707;SDS011;3896;48.758;8.888;2022-08-19T04:33:30;24.43;;;20.87;;
7707;SDS011;3896;48.758;8.888;2022-08-19T04:35:56;23.90;;;20.00;;
7707;SDS011;3896;48.758;8.888;2022-08-19T04:38:23;22.90;;;20.40;;
7707;SDS011;3896;48.758;8.888;2022-08-19T04:40:50;25.00;;;21.30;;
7707;SDS011;3896;48.758;8.888;2022-08-19T04:43:36;25.03;;;20.80;;
7707;SDS011;3896;48.758;8.888;2022-08-19T04:46:06;26.27;;;21.80;;
7707;SDS011;3896;48.758;8.888;2022-08-19T04:48:34;24.13;;;20.90;;
7707;SDS011;3896;48.758;8.888;2022-08-19T04:51:00;24.40;;;20.87;;
7707;SDS011;3896;48.758;8.888;2022-08-19T04:53:27;25.73;;;20.53;;
7707;SDS011;3896;48.758;8.888;2022-08-19T04:55:54;26.07;;;21.93;;
7707;SDS011;3896;48.758;8.888;2022-08-19T04:58:21;26.23;;;21.20;;
7707;SDS011;3896;48.758;8.888;2022-08-19T05:00:48;26.40;;;21.43;;
7707;SDS011;3896;48.758;8.888;2022-08-19T05:03:13;28.47;;;21.73;;
7707;SDS011;3896;48.758;8.888;2022-08-19T05:05:42;24.00;;;20.93;;
7707;SDS011;3896;48.758;8.888;2022-08-19T05:08:09;24.43;;;20.60;;
7707;SDS011;3896;48.758;8.888;2022-08-19T05:10:36;25.07;;;21.33;;
7707;SDS011;3896;48.758;8.888;2022-08-19T05:13:03;25.27;;;20.20;;
7707;SDS011;3896;48.758;8.888;2022-08-19T05:15:28;26.70;;;22.00;;
7707;SDS011;3896;48.758;8.888;2022-08-19T05:17:55;25.40;;;22.20;;
7707;SDS011;3896;48.758;8.888;2022-08-19T05:20:39;26.83;;;21.90;;
7707;SDS011;3896;48.758;8.888;2022-08-19T05:23:23;25.40;;;21.57;;
7707;SDS011;3896;48.758;8.888;2022-08-19T05:25:49;29.07;;;22.80;;
7707;SDS011;3896;48.758;8.888;2022-08-19T05:28:16;24.67;;;21.97;;
7707;SDS011;3896;48.758;8.888;2022-08-19T05:30:43;25.97;;;21.07;;
7707;SDS011;3896;48.758;8.888;2022-08-19T05:33:09;26.23;;;22.97;;
7707;SDS011;3896;48.758;8.888;2022-08-19T05:35:37;25.37;;;21.47;;
7707;SDS011;3896;48.758;8.888;2022-08-19T05:38:04;26.73;;;21.43;;
7707;SDS011;3896;48.758;8.888;2022-08-19T05:40:33;26.43;;;21.50;;
7707;SDS011;3896;48.758;8.888;2022-08-19T05:43:01;25.87;;;21.47;;
7707;SDS011;3896;48.758;8.888;2022-08-19T05:45:28;27.70;;;21.13;;
7707;SDS011;3896;48.758;8.888;2022-08-19T05:47:54;24.07;;;21.50;;
7707;SDS011;3896;48.758;8.888;2022-08-19T05:50:20;26.67;;;21.77;;
7707;SDS011;3896;48.758;8.888;2022-08-19T05:52:46;30.47;;;23.07;;
7707;SDS011;3896;48.758;8.888;2022-08-19T05:55:11;25.77;;;21.83;;
7707;SDS011;3896;48.758;8.888;2022-08-19T05:57:37;25.60;;;22.50;;
7707;SDS011;3896;48.758;8.888;2022-08-19T06:00:04;28.37;;;22.83;;
7707;SDS011;3896;48.758;8.888;2022-08-19T06:02:35;27.40;;;22.13;;
7707;SDS011;3896;48.758;8.888;2022-08-19T06:05:02;25.47;;;22.20;;
7707;SDS011;3896;48.758;8.888;2022-08-19T06:07:31;28.80;;;21.83;;
7707;SDS011;3896;48.758;8.888;2022-08-19T06:09:57;25.40;;;20.83;;
7707;SDS011;3896;48.758;8.888;2022-08-19T06:12:22;24.33;;;20.97;;
7707;SDS011;3896;48.758;8.888;2022-08-19T06:14:53;25.73;;;20.80;;
7707;SDS011;3896;48.758;8.888;2022-08-19T06:17:19;24.03;;;21.17;;
7707;SDS011;3896;48.758;8.888;2022-08-19T06:19:47;28.40;;;21.37;;
7707;SDS011;3896;48.758;8.888;2022-08-19T06:22:14;27.10;;;21.93;;
7707;SDS011;3896;48.758;8.888;2022-08-19T06:24:41;26.20;;;21.63;;
7707;SDS011;3896;48.758;8.888;2022-08-19T06:27:07;23.30;;;20.67;;
7707;SDS011;3896;48.758;8.888;2022-08-19T06:29:32;24.40;;;20.53;;
7707;SDS011;3896;48.758;8.888;2022-08-19T06:32:00;21.27;;;18.93;;
7707;SDS011;3896;48.758;8.888;2022-08-19T06:34:28;24.93;;;21.27;;
7707;SDS011;3896;48.758;8.888;2022-08-19T06:36:56;22.60;;;19.90;;
7707;SDS011;3896;48.758;8.888;2022-08-19T06:39:27;23.67;;;21.00;;
7707;SDS011;3896;48.758;8.888;2022-08-19T06:42:02;25.97;;;20.33;;
7707;SDS011;3896;48.758;8.888;2022-08-19T06:44:31;23.17;;;20.63;;
7707;SDS011;3896;48.758;8.888;2022-08-19T06:47:02;22.77;;;20.30;;
7707;SDS011;3896;48.758;8.888;2022-08-19T06:49:28;24.73;;;21.07;;
7707;SDS011;3896;48.758;8.888;2022-08-19T06:51:55;25.17;;;19.37;;
7707;SDS011;3896;48.758;8.888;2022-08-19T06:54:23;23.80;;;21.17;;
7707;SDS011;3896;48.758;8.888;2022-08-19T06:56:50;20.00;;;17.27;;
7707;SDS011;3896;48.758;8.888;2022-08-19T06:59:20;22.00;;;18.90;;
7707;SDS011;3896;48.758;8.888;2022-08-19T07:01:51;21.13;;;17.67;;
7707;SDS011;3896;48.758;8.888;2022-08-19T07:04:20;22.80;;;19.23;;
7707;SDS011;3896;48.758;8.888;2022-08-19T07:06:49;22.93;;;18.43;;
7707;SDS011;3896;48.758;8.888;2022-08-19T07:09:16;21.63;;;19.33;;
7707;SDS011;3896;48.758;8.888;2022-08-19T07:11:44;22.63;;;19.70;;
7707;SDS011;3896;48.758;8.888;2022-08-19T07:14:11;22.87;;;20.03;;
7707;SDS011;3896;48.758;8.888;2022-08-19T07:16:37;22.87;;;19.20;;
7707;SDS011;3896;48.758;8.888;2022-08-19T07:19:02;24.27;;;19.90;;
7707;SDS011;3896;48.758;8.888;2022-08-19T07:21:28;22.47;;;19.30;;
7707;SDS011;3896;48.758;8.888;2022-08-19T07:23:58;23.20;;;19.30;;
7707;SDS011;3896;48.758;8.888;2022-08-19T07:26:26;20.77;;;18.30;;
7707;SDS011;3896;48.758;8.888;2022-08-19T07:28:54;20.70;;;17.77;;
7707;SDS011;3896;48.758;8.888;2022-08-19T07:31:22;21.23;;;17.87;;
7707;SDS011;3896;48.758;8.888;2022-08-19T07:33:49;19.23;;;17.27;;
7707;SDS011;3896;48.758;8.888;2022-08-19T07:36:18;18.90;;;16.13;;
7707;SDS011;3896;48.758;8.888;2022-08-19T07:38:46;20.23;;;18.10;;
7707;SDS011;3896;48.758;8.888;2022-08-19T07:41:14;23.07;;;18.40;;
7707;SDS011;3896;48.758;8.888;2022-08-19T07:43:43;22.13;;;18.67;;
7707;SDS011;3896;48.758;8.888;2022-08-19T07:46:09;20.93;;;18.80;;
7707;SDS011;3896;48.758;8.888;2022-08-19T07:48:35;18.77;;;16.77;;
7707;SDS011;3896;48.758;8.888;2022-08-19T07:51:03;22.67;;;17.07;;
7707;SDS011;3896;48.758;8.888;2022-08-19T07:53:31;20.63;;;18.10;;
7707;SDS011;3896;48.758;8.888;2022-08-19T07:55:57;20.97;;;18.03;;
7707;SDS011;3896;48.758;8.888;2022-08-19T07:58:29;18.93;;;16.90;;
7707;SDS011;3896;48.758;8.888;2022-08-19T08:00:56;18.63;;;16.17;;
7707;SDS011;3896;48.758;8.888;2022-08-19T08:03:22;18.33;;;16.37;;
7707;SDS011;3896;48.758;8.888;2022-08-19T08:06:09;23.37;;;17.90;;
7707;SDS011;3896;48.758;8.888;2022-08-19T08:08:53;18.40;;;16.40;;
7707;SDS011;3896;48.758;8.888;2022-08-19T08:11:40;18.67;;;16.63;;
7707;SDS011;3896;48.758;8.888;2022-08-19T08:14:13;19.60;;;15.87;;
7707;SDS011;3896;48.758;8.888;2022-08-19T08:16:40;19.37;;;16.20;;
7707;SDS011;3896;48.758;8.888;2022-08-19T08:19:07;18.83;;;16.80;;
7707;SDS011;3896;48.758;8.888;2022-08-19T08:21:33;18.50;;;16.10;;
7707;SDS011;3896;48.758;8.888;2022-08-19T08:23:59;19.97;;;16.97;;
7707;SDS011;3896;48.758;8.888;2022-08-19T08:26:25;17.40;;;15.53;;
7707;SDS011;3896;48.758;8.888;2022-08-19T08:28:51;16.90;;;15.00;;
7707;SDS011;3896;48.758;8.888;2022-08-19T08:31:17;18.97;;;15.20;;
7707;SDS011;3896;48.758;8.888;2022-08-19T08:33:44;21.63;;;16.20;;
7707;SDS011;3896;48.758;8.888;2022-08-19T08:36:11;17.73;;;14.30;;
7707;SDS011;3896;48.758;8.888;2022-08-19T08:38:38;17.43;;;15.27;;
7707;SDS011;3896;48.758;8.888;2022-08-19T08:43:58;20.17;;;15.43;;
7707;SDS011;3896;48.758;8.888;2022-08-19T08:46:36;19.63;;;15.47;;
7707;SDS011;3896;48.758;8.888;2022-08-19T08:54:38;17.53;;;15.57;;
7707;SDS011;3896;48.758;8.888;2022-08-19T08:57:09;16.00;;;14.43;;
7707;SDS011;3896;48.758;8.888;2022-08-19T08:59:39;17.83;;;15.00;;
7707;SDS011;3896;48.758;8.888;2022-08-19T09:02:06;19.23;;;16.33;;
7707;SDS011;3896;48.758;8.888;2022-08-19T09:04:34;17.00;;;15.30;;
7707;SDS011;3896;48.758;8.888;2022-08-19T09:09:52;17.23;;;15.43;;
7707;SDS011;3896;48.758;8.888;2022-08-19T09:15:10;18.43;;;15.90;;
7707;SDS011;3896;48.758;8.888;2022-08-19T09:17:38;20.20;;;16.27;;
7707;SDS011;3896;48.758;8.888;2022-08-19T09:22:33;17.90;;;16.10;;
7707;SDS011;3896;48.758;8.888;2022-08-19T09:24:59;16.73;;;14.93;;
7707;SDS011;3896;48.758;8.888;2022-08-19T09:27:25;21.00;;;16.27;;
7707;SDS011;3896;48.758;8.888;2022-08-19T09:29:52;29.83;;;18.13;;
7707;SDS011;3896;48.758;8.888;2022-08-19T09:32:18;27.90;;;16.40;;
7707;SDS011;3896;48.758;8.888;2022-08-19T09:34:45;16.97;;;13.67;;
7707;SDS011;3896;48.758;8.888;2022-08-19T09:37:11;16.67;;;14.27;;
7707;SDS011;3896;48.758;8.888;2022-08-19T09:39:37;23.73;;;15.43;;
7707;SDS011;3896;48.758;8.888;2022-08-19T09:42:04;16.90;;;13.30;;
7707;SDS011;3896;48.758;8.888;2022-08-19T09:44:33;19.60;;;15.53;;
7707;SDS011;3896;48.758;8.888;2022-08-19T09:46:59;15.13;;;13.63;;
7707;SDS011;3896;48.758;8.888;2022-08-19T09:49:25;16.23;;;14.53;;
7707;SDS011;3896;48.758;8.888;2022-08-19T09:51:51;18.33;;;12.80;;
7707;SDS011;3896;48.758;8.888;2022-08-19T09:54:19;15.17;;;13.23;;
7707;SDS011;3896;48.758;8.888;2022-08-19T09:56:45;14.23;;;12.80;;
7707;SDS011;3896;48.758;8.888;2022-08-19T09:59:10;16.97;;;14.03;;
7707;SDS011;3896;48.758;8.888;2022-08-19T10:01:37;15.73;;;13.07;;
7707;SDS011;3896;48.758;8.888;2022-08-19T10:04:03;14.30;;;11.87;;
7707;SDS011;3896;48.758;8.888;2022-08-19T10:06:38;16.47;;;13.23;;
7707;SDS011;3896;48.758;8.888;2022-08-19T10:09:05;14.70;;;13.13;;
7707;SDS011;3896;48.758;8.888;2022-08-19T10:11:33;14.40;;;12.90;;
7707;SDS011;3896;48.758;8.888;2022-08-19T10:14:00;14.13;;;12.53;;
7707;SDS011;3896;48.758;8.888;2022-08-19T10:16:27;14.57;;;11.03;;
7707;SDS011;3896;48.758;8.888;2022-08-19T10:18:53;15.00;;;11.97;;
7707;SDS011;3896;48.758;8.888;2022-08-19T10:21:23;16.03;;;12.07;;
7707;SDS011;3896;48.758;8.888;2022-08-19T10:23:52;11.57;;;10.27;;
7707;SDS011;3896;48.758;8.888;2022-08-19T10:26:22;12.23;;;11.03;;
7707;SDS011;3896;48.758;8.888;2022-08-19T10:28:50;13.50;;;10.23;;
7707;SDS011;3896;48.758;8.888;2022-08-19T10:31:17;12.47;;;10.80;;
7707;SDS011;3896;48.758;8.888;2022-08-19T10:33:45;11.83;;;10.70;;
7707;SDS011;3896;48.758;8.888;2022-08-19T10:36:16;14.43;;;12.03;;
7707;SDS011;3896;48.758;8.888;2022-08-19T10:38:44;11.10;;;10.07;;
7707;SDS011;3896;48.758;8.888;2022-08-19T10:41:12;12.07;;;10.80;;
7707;SDS011;3896;48.758;8.888;2022-08-19T10:43:40;12.50;;;11.20;;
7707;SDS011;3896;48.758;8.888;2022-08-19T10:46:07;13.77;;;11.13;;
7707;SDS011;3896;48.758;8.888;2022-08-19T10:48:34;13.00;;;9.97;;
7707;SDS011;3896;48.758;8.888;2022-08-19T10:51:00;11.70;;;10.50;;
7707;SDS011;3896;48.758;8.888;2022-08-19T10:53:45;12.27;;;11.07;;
7707;SDS011;3896;48.758;8.888;2022-08-19T10:56:11;12.23;;;10.60;;
7707;SDS011;3896;48.758;8.888;2022-08-19T10:58:55;13.07;;;11.67;;
7707;SDS011;3896;48.758;8.888;2022-08-19T11:01:22;13.73;;;11.70;;
7707;SDS011;3896;48.758;8.888;2022-08-19T11:03:49;12.60;;;11.40;;
7707;SDS011;3896;48.758;8.888;2022-08-19T11:06:14;14.40;;;10.13;;
7707;SDS011;3896;48.758;8.888;2022-08-19T11:08:40;11.20;;;10.10;;
7707;SDS011;3896;48.758;8.888;2022-08-19T11:11:07;13.83;;;10.40;;
7707;SDS011;3896;48.758;8.888;2022-08-19T11:13:35;12.10;;;10.10;;
7707;SDS011;3896;48.758;8.888;2022-08-19T11:16:05;14.60;;;9.77;;
7707;SDS011;3896;48.758;8.888;2022-08-19T11:18:38;10.57;;;9.03;;
7707;SDS011;3896;48.758;8.888;2022-08-19T11:21:19;11.47;;;10.33;;
7707;SDS011;3896;48.758;8.888;2022-08-19T11:23:49;11.47;;;9.30;;
7707;SDS011;3896;48.758;8.888;2022-08-19T11:26:17;10.90;;;9.70;;
7707;SDS011;3896;48.758;8.888;2022-08-19T11:28:45;9.57;;;8.60;;
7707;SDS011;3896;48.758;8.888;2022-08-19T11:31:16;9.77;;;8.53;;
7707;SDS011;3896;48.758;8.888;2022-08-19T11:33:44;8.97;;;7.80;;
7707;SDS011;3896;48.758;8.888;2022-08-19T11:36:11;8.70;;;7.80;;
7707;SDS011;3896;48.758;8.888;2022-08-19T11:38:37;9.57;;;7.93;;
7707;SDS011;3896;48.758;8.888;2022-08-19T11:41:04;10.07;;;8.37;;
7707;SDS011;3896;48.758;8.888;2022-08-19T11:43:32;9.83;;;8.33;;
7707;SDS011;3896;48.758;8.888;2022-08-19T11:45:58;10.07;;;7.70;;
7707;SDS011;3896;48.758;8.888;2022-08-19T11:48:25;8.20;;;7.40;;
7707;SDS011;3896;48.758;8.888;2022-08-19T11:50:51;9.17;;;7.90;;
7707;SDS011;3896;48.758;8.888;2022-08-19T11:53:20;8.50;;;7.70;;
7707;SDS011;3896;48.758;8.888;2022-08-19T11:55:46;7.90;;;7.20;;
7707;SDS011;3896;48.758;8.888;2022-08-19T11:58:13;7.83;;;6.70;;
7707;SDS011;3896;48.758;8.888;2022-08-19T12:00:41;7.77;;;7.07;;
7707;SDS011;3896;48.758;8.888;2022-08-19T12:03:10;7.93;;;6.60;;
7707;SDS011;3896;48.758;8.888;2022-08-19T12:05:38;8.17;;;6.50;;
7707;SDS011;3896;48.758;8.888;2022-08-19T12:08:04;6.53;;;5.67;;
7707;SDS011;3896;48.758;8.888;2022-08-19T12:10:31;6.53;;;5.83;;
7707;SDS011;3896;48.758;8.888;2022-08-19T12:12:57;7.40;;;6.10;;
7707;SDS011;3896;48.758;8.888;2022-08-19T12:15:23;5.83;;;5.37;;
7707;SDS011;3896;48.758;8.888;2022-08-19T12:17:48;7.57;;;5.43;;
7707;SDS011;3896;48.758;8.888;2022-08-19T12:20:14;6.73;;;5.63;;
7707;SDS011;3896;48.758;8.888;2022-08-19T12:22:41;6.30;;;5.67;;
7707;SDS011;3896;48.758;8.888;2022-08-19T12:25:08;6.83;;;6.20;;
7707;SDS011;3896;48.758;8.888;2022-08-19T12:27:35;8.77;;;5.70;;
7707;SDS011;3896;48.758;8.888;2022-08-19T12:30:02;9.23;;;5.90;;
7707;SDS011;3896;48.758;8.888;2022-08-19T12:32:29;7.40;;;5.87;;
7707;SDS011;3896;48.758;8.888;2022-08-19T12:34:55;6.23;;;5.47;;
7707;SDS011;3896;48.758;8.888;2022-08-19T12:37:20;6.80;;;6.27;;
7707;SDS011;3896;48.758;8.888;2022-08-19T12:39:46;6.43;;;5.47;;
7707;SDS011;3896;48.758;8.888;2022-08-19T12:42:12;6.53;;;5.67;;
7707;SDS011;3896;48.758;8.888;2022-08-19T12:44:39;5.50;;;5.00;;
7707;SDS011;3896;48.758;8.888;2022-08-19T12:47:07;6.47;;;4.90;;
7707;SDS011;3896;48.758;8.888;2022-08-19T12:49:35;5.87;;;5.40;;
7707;SDS011;3896;48.758;8.888;2022-08-19T12:52:02;6.17;;;4.67;;
7707;SDS011;3896;48.758;8.888;2022-08-19T12:54:29;5.73;;;5.23;;
7707;SDS011;3896;48.758;8.888;2022-08-19T12:56:56;6.43;;;5.83;;
7707;SDS011;3896;48.758;8.888;2022-08-19T12:59:22;6.53;;;5.43;;
7707;SDS011;3896;48.758;8.888;2022-08-19T13:01:48;6.13;;;4.97;;
7707;SDS011;3896;48.758;8.888;2022-08-19T13:04:14;5.50;;;5.10;;
7707;SDS011;3896;48.758;8.888;2022-08-19T13:06:41;6.07;;;4.70;;
7707;SDS011;3896;48.758;8.888;2022-08-19T13:09:07;5.50;;;4.70;;
7707;SDS011;3896;48.758;8.888;2022-08-19T13:11:34;5.13;;;4.73;;
7707;SDS011;3896;48.758;8.888;2022-08-19T13:14:00;5.60;;;5.03;;
7707;SDS011;3896;48.758;8.888;2022-08-19T13:16:27;5.57;;;5.07;;
7707;SDS011;3896;48.758;8.888;2022-08-19T13:18:54;6.50;;;6.00;;
7707;SDS011;3896;48.758;8.888;2022-08-19T13:21:21;5.83;;;5.33;;
7707;SDS011;3896;48.758;8.888;2022-08-19T13:23:49;7.20;;;6.60;;
7707;SDS011;3896;48.758;8.888;2022-08-19T13:26:16;6.77;;;6.27;;
7707;SDS011;3896;48.758;8.888;2022-08-19T13:28:42;6.70;;;6.27;;
7707;SDS011;3896;48.758;8.888;2022-08-19T13:31:28;7.53;;;6.77;;
7707;SDS011;3896;48.758;8.888;2022-08-19T13:34:14;7.67;;;6.97;;
7707;SDS011;3896;48.758;8.888;2022-08-19T13:36:41;7.23;;;6.63;;
7707;SDS011;3896;48.758;8.888;2022-08-19T13:39:07;7.23;;;6.60;;
7707;SDS011;3896;48.758;8.888;2022-08-19T13:41:34;6.70;;;6.13;;
7707;SDS011;3896;48.758;8.888;2022-08-19T13:44:01;7.63;;;7.03;;
7707;SDS011;3896;48.758;8.888;2022-08-19T13:46:27;6.97;;;6.33;;
7707;SDS011;3896;48.758;8.888;2022-08-19T13:48:54;8.60;;;6.93;;
7707;SDS011;3896;48.758;8.888;2022-08-19T13:51:20;6.80;;;6.30;;
7707;SDS011;3896;48.758;8.888;2022-08-19T13:53:45;7.40;;;6.70;;
7707;SDS011;3896;48.758;8.888;2022-08-19T13:56:12;7.97;;;7.10;;
7707;SDS011;3896;48.758;8.888;2022-08-19T13:58:40;7.83;;;7.10;;
7707;SDS011;3896;48.758;8.888;2022-08-19T14:01:06;9.10;;;6.97;;
7707;SDS011;3896;48.758;8.888;2022-08-19T14:03:32;7.23;;;6.60;;
7707;SDS011;3896;48.758;8.888;2022-08-19T14:05:59;7.20;;;6.50;;
7707;SDS011;3896;48.758;8.888;2022-08-19T14:08:25;7.93;;;6.90;;
7707;SDS011;3896;48.758;8.888;2022-08-19T14:10:53;7.27;;;6.57;;
7707;SDS011;3896;48.758;8.888;2022-08-19T14:13:19;6.93;;;6.33;;
7707;SDS011;3896;48.758;8.888;2022-08-19T14:15:46;8.87;;;7.00;;
7707;SDS011;3896;48.758;8.888;2022-08-19T14:18:13;7.10;;;6.37;;
7707;SDS011;3896;48.758;8.888;2022-08-19T14:20:39;9.63;;;7.10;;
7707;SDS011;3896;48.758;8.888;2022-08-19T14:23:06;7.30;;;6.63;;
7707;SDS011;3896;48.758;8.888;2022-08-19T14:25:32;7.03;;;6.50;;
7707;SDS011;3896;48.758;8.888;2022-08-19T14:27:58;7.50;;;6.83;;
7707;SDS011;3896;48.758;8.888;2022-08-19T14:30:26;7.00;;;6.40;;
7707;SDS011;3896;48.758;8.888;2022-08-19T14:32:55;7.57;;;6.97;;
7707;SDS011;3896;48.758;8.888;2022-08-19T14:35:23;6.63;;;6.03;;
7707;SDS011;3896;48.758;8.888;2022-08-19T14:37:49;7.00;;;6.50;;
7707;SDS011;3896;48.758;8.888;2022-08-19T14:40:16;6.47;;;5.97;;
7707;SDS011;3896;48.758;8.888;2022-08-19T14:42:50;6.97;;;6.27;;
7707;SDS011;3896;48.758;8.888;2022-08-19T14:45:17;7.37;;;6.73;;
7707;SDS011;3896;48.758;8.888;2022-08-19T14:47:42;7.53;;;6.27;;
7707;SDS011;3896;48.758;8.888;2022-08-19T14:50:09;7.07;;;6.47;;
7707;SDS011;3896;48.758;8.888;2022-08-19T14:52:36;6.87;;;6.23;;
7707;SDS011;3896;48.758;8.888;2022-08-19T14:55:03;6.00;;;5.60;;
7707;SDS011;3896;48.758;8.888;2022-08-19T14:57:29;7.47;;;6.83;;
7707;SDS011;3896;48.758;8.888;2022-08-19T14:59:55;6.53;;;5.93;;
7707;SDS011;3896;48.758;8.888;2022-08-19T15:02:22;6.67;;;5.97;;
7707;SDS011;3896;48.758;8.888;2022-08-19T15:04:48;9.93;;;6.50;;
7707;SDS011;3896;48.758;8.888;2022-08-19T15:07:13;6.87;;;6.20;;
7707;SDS011;3896;48.758;8.888;2022-08-19T15:09:39;7.23;;;6.63;;
7707;SDS011;3896;48.758;8.888;2022-08-19T15:12:05;6.57;;;5.97;;
7707;SDS011;3896;48.758;8.888;2022-08-19T15:14:32;7.13;;;6.50;;
7707;SDS011;3896;48.758;8.888;2022-08-19T15:17:01;6.73;;;6.20;;